Terminal Aerodrome Forecast
Issued by NWS

Home | Current Version | Previous Version | Text Only | Print | Product List | Glossary On
Versions: 1 2 3 4 5 6 7 8 9 10 11 12 13 14 15 16 17 18
000
FTUS44 KLZK 160500 RRA
TAFHRO
TAF
KHRO 160541Z 1606/1706 31003KT P6SM SCT025 OVC050
      TEMPO 1606/1610 5SM BR BKN015
     FM161000 VRB04KT 5SM BR SCT007 OVC012
     FM161500 05005KT P6SM OVC015
     FM161900 06005KT P6SM SCT025 SCT250
     FM170100 14003KT P6SM SCT250=

USA.gov is the U.S. government's official web portal to all federal, state and local government web resources and services.